sensor_id;sensor_type;location;lat;lon;timestamp;pressure;altitude;pressure_sealevel;temperature;humidity
59829;BME280;45708;51.848;107.620;2023-07-29T00:03:51;94034.94;;;23.93;52.75
59829;BME280;45708;51.848;107.620;2023-07-29T00:08:52;94031.63;;;22.90;54.53
59829;BME280;45708;51.848;107.620;2023-07-29T00:13:53;94036.88;;;22.69;55.28
59829;BME280;45708;51.848;107.620;2023-07-29T00:18:54;94023.41;;;24.79;51.55
59829;BME280;45708;51.848;107.620;2023-07-29T00:23:54;94038.63;;;25.41;49.78
59829;BME280;45708;51.848;107.620;2023-07-29T00:28:56;94032.03;;;26.28;48.72
59829;BME280;45708;51.848;107.620;2023-07-29T00:33:57;94023.53;;;27.45;47.13
59829;BME280;45708;51.848;107.620;2023-07-29T00:38:57;94024.56;;;28.61;44.18
59829;BME280;45708;51.848;107.620;2023-07-29T00:43:58;94010.31;;;29.06;43.57
59829;BME280;45708;51.848;107.620;2023-07-29T00:48:59;94012.19;;;30.01;41.97
59829;BME280;45708;51.848;107.620;2023-07-29T00:54:00;94021.50;;;30.56;41.08
59829;BME280;45708;51.848;107.620;2023-07-29T00:59:02;94026.47;;;30.77;40.57
59829;BME280;45708;51.848;107.620;2023-07-29T01:04:03;94023.31;;;30.75;40.04
59829;BME280;45708;51.848;107.620;2023-07-29T01:09:24;94012.81;;;30.77;38.67
59829;BME280;45708;51.848;107.620;2023-07-29T01:20:15;94026.28;;;30.63;38.80
59829;BME280;45708;51.848;107.620;2023-07-29T01:25:16;94005.59;;;30.02;38.74
59829;BME280;45708;51.848;107.620;2023-07-29T01:30:18;93997.91;;;29.81;39.23
59829;BME280;45708;51.848;107.620;2023-07-29T01:36:01;94000.75;;;30.45;38.56
59829;BME280;45708;51.848;107.620;2023-07-29T01:41:04;93997.94;;;31.05;37.52
59829;BME280;45708;51.848;107.620;2023-07-29T01:46:06;94006.16;;;31.53;36.48
59829;BME280;45708;51.848;107.620;2023-07-29T01:51:07;94003.44;;;31.12;36.71
59829;BME280;45708;51.848;107.620;2023-07-29T01:56:08;93997.69;;;30.83;36.72
59829;BME280;45708;51.848;107.620;2023-07-29T02:01:09;93996.44;;;31.11;36.38
59829;BME280;45708;51.848;107.620;2023-07-29T02:06:10;93971.63;;;32.40;34.44
59829;BME280;45708;51.848;107.620;2023-07-29T02:11:11;93997.06;;;32.51;34.20
59829;BME280;45708;51.848;107.620;2023-07-29T02:16:11;93994.94;;;32.20;33.69
59829;BME280;45708;51.848;107.620;2023-07-29T02:21:12;93981.25;;;31.61;34.09
59829;BME280;45708;51.848;107.620;2023-07-29T02:26:13;93989.13;;;31.22;34.18
59829;BME280;45708;51.848;107.620;2023-07-29T02:31:23;93986.34;;;31.63;34.11
59829;BME280;45708;51.848;107.620;2023-07-29T02:36:24;93986.59;;;31.43;34.08
59829;BME280;45708;51.848;107.620;2023-07-29T02:41:25;93980.09;;;31.59;34.39
59829;BME280;45708;51.848;107.620;2023-07-29T02:46:26;93982.22;;;31.83;34.51
59829;BME280;45708;51.848;107.620;2023-07-29T02:51:27;93975.56;;;31.77;33.58
59829;BME280;45708;51.848;107.620;2023-07-29T02:56:28;93963.19;;;31.42;33.85
59829;BME280;45708;51.848;107.620;2023-07-29T03:01:28;93960.34;;;29.90;35.61
59829;BME280;45708;51.848;107.620;2023-07-29T03:06:29;93946.94;;;28.41;38.17
59829;BME280;45708;51.848;107.620;2023-07-29T03:11:30;93937.78;;;27.56;39.53
59829;BME280;45708;51.848;107.620;2023-07-29T03:16:31;93926.09;;;27.20;40.76
59829;BME280;45708;51.848;107.620;2023-07-29T03:21:32;93922.81;;;27.11;41.03
59829;BME280;45708;51.848;107.620;2023-07-29T03:26:32;93931.78;;;27.31;41.40
59829;BME280;45708;51.848;107.620;2023-07-29T03:31:33;93923.66;;;27.31;41.32
59829;BME280;45708;51.848;107.620;2023-07-29T03:36:34;93924.88;;;27.34;41.60
59829;BME280;45708;51.848;107.620;2023-07-29T03:41:35;93923.63;;;27.47;41.68
59829;BME280;45708;51.848;107.620;2023-07-29T03:46:36;93906.47;;;27.43;42.02
59829;BME280;45708;51.848;107.620;2023-07-29T03:51:37;93900.22;;;27.58;42.22
59829;BME280;45708;51.848;107.620;2023-07-29T03:56:37;93903.66;;;27.55;41.92
59829;BME280;45708;51.848;107.620;2023-07-29T04:01:38;93899.56;;;27.80;41.81
59829;BME280;45708;51.848;107.620;2023-07-29T04:06:39;93880.66;;;28.03;41.54
59829;BME280;45708;51.848;107.620;2023-07-29T04:11:40;93868.00;;;27.92;42.20
59829;BME280;45708;51.848;107.620;2023-07-29T04:16:40;93877.78;;;27.96;41.61
59829;BME280;45708;51.848;107.620;2023-07-29T04:21:41;93870.81;;;28.18;42.05
59829;BME280;45708;51.848;107.620;2023-07-29T04:26:42;93872.13;;;28.43;41.44
59829;BME280;45708;51.848;107.620;2023-07-29T04:31:43;93853.88;;;28.67;41.59
59829;BME280;45708;51.848;107.620;2023-07-29T04:36:43;93849.53;;;28.62;40.92
59829;BME280;45708;51.848;107.620;2023-07-29T04:41:44;93831.38;;;28.66;40.92
59829;BME280;45708;51.848;107.620;2023-07-29T04:46:45;93823.94;;;28.86;40.81
59829;BME280;45708;51.848;107.620;2023-07-29T04:51:46;93815.47;;;28.91;40.58
59829;BME280;45708;51.848;107.620;2023-07-29T04:56:47;93809.53;;;29.08;40.89
59829;BME280;45708;51.848;107.620;2023-07-29T05:01:47;93808.91;;;29.22;40.57
59829;BME280;45708;51.848;107.620;2023-07-29T05:06:48;93809.50;;;29.35;40.53
59829;BME280;45708;51.848;107.620;2023-07-29T05:11:49;93809.56;;;29.68;40.10
59829;BME280;45708;51.848;107.620;2023-07-29T05:16:50;93785.75;;;29.62;39.97
59829;BME280;45708;51.848;107.620;2023-07-29T05:21:51;93794.06;;;29.73;40.05
59829;BME280;45708;51.848;107.620;2023-07-29T05:26:51;93783.00;;;29.92;39.19
59829;BME280;45708;51.848;107.620;2023-07-29T05:31:52;93784.22;;;29.98;39.29
59829;BME280;45708;51.848;107.620;2023-07-29T05:36:53;93765.34;;;30.12;39.22
59829;BME280;45708;51.848;107.620;2023-07-29T05:41:54;93773.66;;;30.26;39.08
59829;BME280;45708;51.848;107.620;2023-07-29T05:46:54;93756.56;;;30.30;38.87
59829;BME280;45708;51.848;107.620;2023-07-29T05:51:55;93700.81;;;29.83;38.48
59829;BME280;45708;51.848;107.620;2023-07-29T05:56:56;93756.69;;;30.44;38.66
59829;BME280;45708;51.848;107.620;2023-07-29T06:01:57;93745.22;;;30.72;38.39
59829;BME280;45708;51.848;107.620;2023-07-29T06:07:00;93733.94;;;30.73;38.44
59829;BME280;45708;51.848;107.620;2023-07-29T06:12:00;93730.66;;;31.05;38.17
59829;BME280;45708;51.848;107.620;2023-07-29T06:17:01;93730.59;;;30.98;38.10
59829;BME280;45708;51.848;107.620;2023-07-29T06:22:02;93722.38;;;30.91;38.30
59829;BME280;45708;51.848;107.620;2023-07-29T06:27:03;93710.34;;;31.02;37.98
59829;BME280;45708;51.848;107.620;2023-07-29T06:32:04;93710.47;;;31.20;38.13
59829;BME280;45708;51.848;107.620;2023-07-29T06:37:05;93712.13;;;31.42;38.05
59829;BME280;45708;51.848;107.620;2023-07-29T06:42:06;93695.44;;;31.69;37.62
59829;BME280;45708;51.848;107.620;2023-07-29T06:47:07;93692.75;;;31.80;37.18
59829;BME280;45708;51.848;107.620;2023-07-29T06:52:07;93681.09;;;31.93;37.06
59829;BME280;45708;51.848;107.620;2023-07-29T06:57:08;93674.47;;;32.12;37.01
59829;BME280;45708;51.848;107.620;2023-07-29T07:02:09;93680.34;;;32.07;36.86
59829;BME280;45708;51.848;107.620;2023-07-29T07:07:10;93674.88;;;32.14;36.43
59829;BME280;45708;51.848;107.620;2023-07-29T07:12:11;93659.28;;;32.36;36.10
59829;BME280;45708;51.848;107.620;2023-07-29T07:17:12;93656.94;;;32.31;36.31
59829;BME280;45708;51.848;107.620;2023-07-29T07:22:12;93652.66;;;32.44;36.36
59829;BME280;45708;51.848;107.620;2023-07-29T07:27:13;93654.53;;;32.76;36.24
59829;BME280;45708;51.848;107.620;2023-07-29T07:32:14;93647.81;;;33.12;36.05
59829;BME280;45708;51.848;107.620;2023-07-29T07:37:15;93643.41;;;33.40;35.17
59829;BME280;45708;51.848;107.620;2023-07-29T07:42:16;93644.16;;;33.44;35.35
59829;BME280;45708;51.848;107.620;2023-07-29T07:47:17;93634.78;;;33.45;35.03
59829;BME280;45708;51.848;107.620;2023-07-29T07:52:18;93636.63;;;33.62;35.00
59829;BME280;45708;51.848;107.620;2023-07-29T07:57:20;93626.84;;;33.61;34.38
59829;BME280;45708;51.848;107.620;2023-07-29T08:02:20;93619.06;;;33.56;34.83
59829;BME280;45708;51.848;107.620;2023-07-29T08:07:21;93618.19;;;33.73;34.25
59829;BME280;45708;51.848;107.620;2023-07-29T08:12:22;93604.03;;;33.85;34.14
59829;BME280;45708;51.848;107.620;2023-07-29T08:17:23;93601.06;;;34.14;33.88
59829;BME280;45708;51.848;107.620;2023-07-29T08:22:23;93596.28;;;34.25;33.74
59829;BME280;45708;51.848;107.620;2023-07-29T08:27:24;93591.81;;;34.45;33.29
59829;BME280;45708;51.848;107.620;2023-07-29T08:32:25;93586.38;;;34.38;33.32
59829;BME280;45708;51.848;107.620;2023-07-29T08:37:26;93579.41;;;34.30;33.38
59829;BME280;45708;51.848;107.620;2023-07-29T08:42:30;93572.72;;;34.31;32.98
59829;BME280;45708;51.848;107.620;2023-07-29T08:47:31;93570.63;;;34.50;32.76
59829;BME280;45708;51.848;107.620;2023-07-29T08:52:33;93564.41;;;34.45;32.37
59829;BME280;45708;51.848;107.620;2023-07-29T08:57:34;93557.72;;;34.05;32.15
59829;BME280;45708;51.848;107.620;2023-07-29T09:02:35;93562.38;;;34.08;32.49
59829;BME280;45708;51.848;107.620;2023-07-29T09:07:36;93568.56;;;34.16;32.36
59829;BME280;45708;51.848;107.620;2023-07-29T09:12:39;93563.34;;;33.88;32.78
59829;BME280;45708;51.848;107.620;2023-07-29T09:17:41;93555.56;;;33.75;32.60
59829;BME280;45708;51.848;107.620;2023-07-29T09:22:43;93565.78;;;33.71;32.81
59829;BME280;45708;51.848;107.620;2023-07-29T09:27:44;93547.03;;;33.66;32.81
59829;BME280;45708;51.848;107.620;2023-07-29T09:32:45;93560.25;;;33.75;32.91
59829;BME280;45708;51.848;107.620;2023-07-29T09:37:46;93557.13;;;33.76;33.05
59829;BME280;45708;51.848;107.620;2023-07-29T09:42:52;93559.19;;;33.65;33.05
59829;BME280;45708;51.848;107.620;2023-07-29T09:47:54;93566.59;;;33.68;32.74
59829;BME280;45708;51.848;107.620;2023-07-29T09:52:57;93571.25;;;33.71;32.94
59829;BME280;45708;51.848;107.620;2023-07-29T09:57:59;93565.47;;;33.58;32.77
59829;BME280;45708;51.848;107.620;2023-07-29T10:03:00;93551.81;;;33.55;33.36
59829;BME280;45708;51.848;107.620;2023-07-29T10:08:02;93554.59;;;33.48;33.24
59829;BME280;45708;51.848;107.620;2023-07-29T10:13:03;93549.97;;;33.31;33.63
59829;BME280;45708;51.848;107.620;2023-07-29T10:18:06;93549.63;;;33.21;33.88
59829;BME280;45708;51.848;107.620;2023-07-29T10:23:07;93554.41;;;33.10;33.30
59829;BME280;45708;51.848;107.620;2023-07-29T10:28:11;93548.94;;;33.07;33.99
59829;BME280;45708;51.848;107.620;2023-07-29T10:33:12;93531.78;;;32.99;33.87
59829;BME280;45708;51.848;107.620;2023-07-29T10:38:14;93544.69;;;32.98;33.68
59829;BME280;45708;51.848;107.620;2023-07-29T10:43:35;93557.63;;;32.91;33.97
59829;BME280;45708;51.848;107.620;2023-07-29T10:48:39;93563.09;;;32.84;33.75
59829;BME280;45708;51.848;107.620;2023-07-29T10:53:40;93552.22;;;32.66;34.30
59829;BME280;45708;51.848;107.620;2023-07-29T10:58:43;93558.50;;;32.52;34.76
59829;BME280;45708;51.848;107.620;2023-07-29T11:04:01;93554.25;;;32.33;34.34
59829;BME280;45708;51.848;107.620;2023-07-29T11:09:54;93558.56;;;32.24;34.91
59829;BME280;45708;51.848;107.620;2023-07-29T11:14:55;93541.75;;;32.22;35.41
59829;BME280;45708;51.848;107.620;2023-07-29T11:19:57;93550.75;;;32.19;35.15
59829;BME280;45708;51.848;107.620;2023-07-29T11:25:00;93548.41;;;32.24;34.96
59829;BME280;45708;51.848;107.620;2023-07-29T11:30:04;93558.19;;;32.29;34.45
59829;BME280;45708;51.848;107.620;2023-07-29T11:35:10;93555.03;;;32.16;34.69
59829;BME280;45708;51.848;107.620;2023-07-29T11:40:17;93555.84;;;32.02;34.57
59829;BME280;45708;51.848;107.620;2023-07-29T11:45:20;93555.47;;;31.79;35.07
59829;BME280;45708;51.848;107.620;2023-07-29T11:50:21;93559.31;;;31.42;35.65
59829;BME280;45708;51.848;107.620;2023-07-29T11:55:22;93567.47;;;31.28;36.53
59829;BME280;45708;51.848;107.620;2023-07-29T12:00:22;93557.28;;;31.11;37.09
59829;BME280;45708;51.848;107.620;2023-07-29T12:05:24;93553.72;;;30.93;37.92
59829;BME280;45708;51.848;107.620;2023-07-29T12:10:25;93558.34;;;30.81;38.31
59829;BME280;45708;51.848;107.620;2023-07-29T12:15:28;93554.41;;;30.68;38.73
59829;BME280;45708;51.848;107.620;2023-07-29T12:20:30;93551.94;;;30.45;39.22
59829;BME280;45708;51.848;107.620;2023-07-29T12:25:31;93556.44;;;30.20;39.41
59829;BME280;45708;51.848;107.620;2023-07-29T12:30:32;93568.75;;;30.03;40.20
59829;BME280;45708;51.848;107.620;2023-07-29T12:35:36;93573.31;;;29.85;40.31
59829;BME280;45708;51.848;107.620;2023-07-29T12:40:38;93575.91;;;29.67;40.82
59829;BME280;45708;51.848;107.620;2023-07-29T12:45:39;93581.63;;;29.58;41.46
59829;BME280;45708;51.848;107.620;2023-07-29T12:50:40;93594.03;;;29.52;41.84
59829;BME280;45708;51.848;107.620;2023-07-29T12:55:41;93595.53;;;29.46;42.42
59829;BME280;45708;51.848;107.620;2023-07-29T13:00:42;93592.25;;;29.33;42.51
59829;BME280;45708;51.848;107.620;2023-07-29T13:05:42;93595.69;;;29.27;43.15
59829;BME280;45708;51.848;107.620;2023-07-29T13:10:43;93598.25;;;29.13;43.51
59829;BME280;45708;51.848;107.620;2023-07-29T13:15:44;93604.44;;;29.10;43.88
59829;BME280;45708;51.848;107.620;2023-07-29T13:20:45;93608.22;;;29.01;44.13
59829;BME280;45708;51.848;107.620;2023-07-29T13:25:45;93605.75;;;28.89;44.55
59829;BME280;45708;51.848;107.620;2023-07-29T13:30:46;93611.41;;;28.77;44.91
59829;BME280;45708;51.848;107.620;2023-07-29T13:35:47;93600.78;;;28.65;44.92
59829;BME280;45708;51.848;107.620;2023-07-29T13:40:48;93600.25;;;28.56;45.64
59829;BME280;45708;51.848;107.620;2023-07-29T13:45:49;93601.31;;;28.47;45.77
59829;BME280;45708;51.848;107.620;2023-07-29T13:50:49;93590.25;;;28.33;46.17
59829;BME280;45708;51.848;107.620;2023-07-29T13:55:52;93597.16;;;28.27;46.15
59829;BME280;45708;51.848;107.620;2023-07-29T14:00:52;93607.84;;;28.16;46.86
59829;BME280;45708;51.848;107.620;2023-07-29T14:05:53;93613.53;;;28.08;46.99
59829;BME280;45708;51.848;107.620;2023-07-29T14:10:54;93596.69;;;27.99;47.70
59829;BME280;45708;51.848;107.620;2023-07-29T14:15:55;93598.91;;;27.90;47.62
59829;BME280;45708;51.848;107.620;2023-07-29T14:20:55;93608.91;;;27.85;48.07
59829;BME280;45708;51.848;107.620;2023-07-29T14:25:56;93601.94;;;27.84;48.04
59829;BME280;45708;51.848;107.620;2023-07-29T14:30:57;93608.91;;;27.85;48.26
59829;BME280;45708;51.848;107.620;2023-07-29T14:35:58;93605.66;;;27.76;49.00
59829;BME280;45708;51.848;107.620;2023-07-29T14:40:59;93604.81;;;27.72;48.78
59829;BME280;45708;51.848;107.620;2023-07-29T14:46:01;93607.69;;;27.60;49.62
59829;BME280;45708;51.848;107.620;2023-07-29T14:51:02;93593.47;;;27.44;50.00
59829;BME280;45708;51.848;107.620;2023-07-29T14:56:02;93597.38;;;27.46;50.33
59829;BME280;45708;51.848;107.620;2023-07-29T15:01:03;93608.41;;;27.34;50.43
59829;BME280;45708;51.848;107.620;2023-07-29T15:06:04;93601.66;;;27.24;50.66
59829;BME280;45708;51.848;107.620;2023-07-29T15:11:05;93609.47;;;27.30;51.08
59829;BME280;45708;51.848;107.620;2023-07-29T15:16:05;93602.44;;;27.25;50.88
59829;BME280;45708;51.848;107.620;2023-07-29T15:21:06;93603.78;;;27.15;51.04
59829;BME280;45708;51.848;107.620;2023-07-29T15:26:07;93601.06;;;26.96;51.84
59829;BME280;45708;51.848;107.620;2023-07-29T15:31:08;93602.28;;;26.79;52.07
59829;BME280;45708;51.848;107.620;2023-07-29T15:36:09;93607.44;;;26.65;52.57
59829;BME280;45708;51.848;107.620;2023-07-29T15:41:09;93607.19;;;26.54;52.88
59829;BME280;45708;51.848;107.620;2023-07-29T15:46:10;93592.59;;;26.59;53.17
59829;BME280;45708;51.848;107.620;2023-07-29T15:51:11;93585.59;;;26.77;52.97
59829;BME280;45708;51.848;107.620;2023-07-29T15:56:13;93593.38;;;26.79;53.03
59829;BME280;45708;51.848;107.620;2023-07-29T16:01:14;93580.56;;;26.76;53.12
59829;BME280;45708;51.848;107.620;2023-07-29T16:06:15;93582.91;;;26.77;53.17
59829;BME280;45708;51.848;107.620;2023-07-29T16:11:15;93580.56;;;26.76;53.03
59829;BME280;45708;51.848;107.620;2023-07-29T16:16:16;93582.78;;;26.70;53.59
59829;BME280;45708;51.848;107.620;2023-07-29T16:21:17;93575.63;;;26.62;53.75
59829;BME280;45708;51.848;107.620;2023-07-29T16:26:19;93584.69;;;26.50;53.93
59829;BME280;45708;51.848;107.620;2023-07-29T16:31:21;93590.53;;;26.52;54.06
59829;BME280;45708;51.848;107.620;2023-07-29T16:36:21;93586.69;;;26.53;54.41
59829;BME280;45708;51.848;107.620;2023-07-29T16:41:22;93583.06;;;26.46;54.48
59829;BME280;45708;51.848;107.620;2023-07-29T16:46:23;93596.38;;;26.54;54.46
59829;BME280;45708;51.848;107.620;2023-07-29T16:51:25;93595.94;;;26.52;54.70
59829;BME280;45708;51.848;107.620;2023-07-29T16:56:26;93593.94;;;26.49;54.27
59829;BME280;45708;51.848;107.620;2023-07-29T17:01:27;93583.13;;;26.49;54.37
59829;BME280;45708;51.848;107.620;2023-07-29T17:06:27;93583.41;;;26.44;54.54
59829;BME280;45708;51.848;107.620;2023-07-29T17:11:28;93585.59;;;26.38;54.42
59829;BME280;45708;51.848;107.620;2023-07-29T17:16:29;93573.44;;;26.32;54.75
59829;BME280;45708;51.848;107.620;2023-07-29T17:21:30;93584.22;;;26.29;54.85
59829;BME280;45708;51.848;107.620;2023-07-29T17:26:31;93583.25;;;26.21;54.86
59829;BME280;45708;51.848;107.620;2023-07-29T17:31:31;93573.78;;;26.12;55.08
59829;BME280;45708;51.848;107.620;2023-07-29T17:36:32;93600.69;;;26.04;55.23
59829;BME280;45708;51.848;107.620;2023-07-29T17:41:35;93580.63;;;25.90;55.59
59829;BME280;45708;51.848;107.620;2023-07-29T17:46:36;93575.50;;;25.85;55.83
59829;BME280;45708;51.848;107.620;2023-07-29T17:51:37;93580.13;;;25.84;55.73
59829;BME280;45708;51.848;107.620;2023-07-29T17:56:37;93562.13;;;25.76;55.96
59829;BME280;45708;51.848;107.620;2023-07-29T18:01:38;93574.16;;;25.78;56.05
59829;BME280;45708;51.848;107.620;2023-07-29T18:06:39;93565.97;;;25.75;56.02
59829;BME280;45708;51.848;107.620;2023-07-29T18:11:40;93554.31;;;25.71;55.93
59829;BME280;45708;51.848;107.620;2023-07-29T18:16:41;93575.03;;;25.67;56.20
59829;BME280;45708;51.848;107.620;2023-07-29T18:21:42;93563.88;;;25.53;56.62
59829;BME280;45708;51.848;107.620;2023-07-29T18:26:43;93566.84;;;25.47;56.86
59829;BME280;45708;51.848;107.620;2023-07-29T18:31:43;93568.16;;;25.38;57.05
59829;BME280;45708;51.848;107.620;2023-07-29T18:36:44;93570.50;;;25.39;56.95
59829;BME280;45708;51.848;107.620;2023-07-29T18:41:45;93571.13;;;25.48;56.79
59829;BME280;45708;51.848;107.620;2023-07-29T18:46:46;93578.59;;;25.39;57.02
59829;BME280;45708;51.848;107.620;2023-07-29T18:51:47;93574.44;;;25.26;57.31
59829;BME280;45708;51.848;107.620;2023-07-29T18:56:47;93563.16;;;25.08;57.54
59829;BME280;45708;51.848;107.620;2023-07-29T19:01:48;93568.50;;;24.93;57.71
59829;BME280;45708;51.848;107.620;2023-07-29T19:06:49;93586.19;;;24.90;57.94
59829;BME280;45708;51.848;107.620;2023-07-29T19:11:50;93580.25;;;24.84;57.98
59829;BME280;45708;51.848;107.620;2023-07-29T19:16:51;93604.06;;;24.95;58.14
59829;BME280;45708;51.848;107.620;2023-07-29T19:21:52;93610.25;;;24.95;57.96
59829;BME280;45708;51.848;107.620;2023-07-29T19:26:53;93626.38;;;24.92;58.12
59829;BME280;45708;51.848;107.620;2023-07-29T19:31:53;93618.91;;;25.01;57.48
59829;BME280;45708;51.848;107.620;2023-07-29T19:36:54;93614.69;;;24.87;57.78
59829;BME280;45708;51.848;107.620;2023-07-29T19:41:55;93614.44;;;24.93;57.48
59829;BME280;45708;51.848;107.620;2023-07-29T19:46:56;93627.41;;;24.87;57.69
59829;BME280;45708;51.848;107.620;2023-07-29T19:51:57;93627.50;;;24.91;57.16
59829;BME280;45708;51.848;107.620;2023-07-29T19:56:57;93647.28;;;24.95;57.26
59829;BME280;45708;51.848;107.620;2023-07-29T20:01:58;93652.50;;;24.87;57.38
59829;BME280;45708;51.848;107.620;2023-07-29T20:06:59;93633.16;;;24.85;57.23
59829;BME280;45708;51.848;107.620;2023-07-29T20:12:00;93636.25;;;25.00;56.90
59829;BME280;45708;51.848;107.620;2023-07-29T20:17:01;93624.44;;;25.04;56.54
59829;BME280;45708;51.848;107.620;2023-07-29T20:22:02;93606.97;;;25.02;56.57
59829;BME280;45708;51.848;107.620;2023-07-29T20:27:03;93622.75;;;25.00;56.37
59829;BME280;45708;51.848;107.620;2023-07-29T20:32:04;93628.16;;;25.00;56.48
59829;BME280;45708;51.848;107.620;2023-07-29T20:37:05;93620.09;;;24.87;56.69
59829;BME280;45708;51.848;107.620;2023-07-29T20:42:06;93617.94;;;24.81;57.06
59829;BME280;45708;51.848;107.620;2023-07-29T20:47:07;93660.53;;;24.72;57.46
59829;BME280;45708;51.848;107.620;2023-07-29T20:52:07;93815.22;;;24.60;57.43
59829;BME280;45708;51.848;107.620;2023-07-29T20:57:08;93816.16;;;24.64;57.26
59829;BME280;45708;51.848;107.620;2023-07-29T21:02:09;93811.75;;;24.72;57.49
59829;BME280;45708;51.848;107.620;2023-07-29T21:07:10;93813.75;;;24.63;57.84
59829;BME280;45708;51.848;107.620;2023-07-29T21:12:11;93803.31;;;24.49;58.12
59829;BME280;45708;51.848;107.620;2023-07-29T21:17:11;93790.50;;;24.34;58.51
59829;BME280;45708;51.848;107.620;2023-07-29T21:22:12;93777.63;;;24.18;58.83
59829;BME280;45708;51.848;107.620;2023-07-29T21:27:13;93782.44;;;24.01;59.08
59829;BME280;45708;51.848;107.620;2023-07-29T21:32:14;93784.09;;;23.93;59.60
59829;BME280;45708;51.848;107.620;2023-07-29T21:37:15;93759.59;;;23.86;59.64
59829;BME280;45708;51.848;107.620;2023-07-29T21:42:16;93714.81;;;23.60;60.52
59829;BME280;45708;51.848;107.620;2023-07-29T21:47:17;93728.47;;;23.43;61.43
59829;BME280;45708;51.848;107.620;2023-07-29T21:52:17;93720.94;;;23.16;61.73
59829;BME280;45708;51.848;107.620;2023-07-29T21:57:18;93727.25;;;22.99;62.48
59829;BME280;45708;51.848;107.620;2023-07-29T22:02:19;93771.88;;;22.88;63.41
59829;BME280;45708;51.848;107.620;2023-07-29T22:07:20;93803.06;;;22.80;63.52
59829;BME280;45708;51.848;107.620;2023-07-29T22:12:20;93837.16;;;22.76;63.84
59829;BME280;45708;51.848;107.620;2023-07-29T22:17:21;93852.25;;;22.68;64.27
59829;BME280;45708;51.848;107.620;2023-07-29T22:22:22;93861.56;;;22.71;64.05
59829;BME280;45708;51.848;107.620;2023-07-29T22:27:23;93823.34;;;22.86;64.02
59829;BME280;45708;51.848;107.620;2023-07-29T22:32:23;93748.13;;;23.02;63.88
59829;BME280;45708;51.848;107.620;2023-07-29T22:37:24;93648.69;;;22.76;64.53
59829;BME280;45708;51.848;107.620;2023-07-29T22:42:25;93618.78;;;22.57;65.64
59829;BME280;45708;51.848;107.620;2023-07-29T22:47:26;93575.34;;;22.46;65.59
59829;BME280;45708;51.848;107.620;2023-07-29T22:52:27;93585.50;;;22.61;65.10
59829;BME280;45708;51.848;107.620;2023-07-29T22:57:27;93652.59;;;22.87;64.78
59829;BME280;45708;51.848;107.620;2023-07-29T23:02:28;93714.53;;;22.87;64.84
59829;BME280;45708;51.848;107.620;2023-07-29T23:07:29;93725.56;;;22.94;64.84
59829;BME280;45708;51.848;107.620;2023-07-29T23:12:31;93685.25;;;22.86;65.69
59829;BME280;45708;51.848;107.620;2023-07-29T23:17:31;93675.28;;;22.86;65.66
59829;BME280;45708;51.848;107.620;2023-07-29T23:22:32;93670.03;;;23.35;64.01
59829;BME280;45708;51.848;107.620;2023-07-29T23:27:33;93724.53;;;23.98;61.69
59829;BME280;45708;51.848;107.620;2023-07-29T23:32:34;93727.59;;;24.21;61.33
59829;BME280;45708;51.848;107.620;2023-07-29T23:37:35;93744.38;;;24.39;60.20
59829;BME280;45708;51.848;107.620;2023-07-29T23:42:36;93712.63;;;24.60;59.20
59829;BME280;45708;51.848;107.620;2023-07-29T23:47:37;93733.28;;;24.93;58.58
59829;BME280;45708;51.848;107.620;2023-07-29T23:52:37;93775.66;;;25.29;57.56
59829;BME280;45708;51.848;107.620;2023-07-29T23:57:38;93787.34;;;25.61;56.93
